Time;durP1;ratioP1;P1;durP2;ratioP2;P2;SDS_P1;SDS_P2;PMS_P1;PMS_P2;Temp;Humidity;BMP_temperature;BMP_pressure;BME280_temperature;BME280_humidity;BME280_pressure;Samples;Min_cycle;Max_cycle;Signal;HPM_P1;HPM_P2
2022/03/04 00:01:16;;;;;;;13.13;9.23;;;4.70;99.90;;;;;;5072599;28;20165;-49
2022/03/04 00:03:42;;;;;;;14.73;11.45;;;4.60;99.90;;;;;;5072511;28;20162;-48
2022/03/04 00:06:08;;;;;;;13.50;8.82;;;4.50;99.90;;;;;;5072935;28;20170;-49
2022/03/04 00:08:33;;;;;;;16.42;11.32;;;4.50;99.90;;;;;;5072499;28;20585;-48
2022/03/04 00:10:59;;;;;;;21.52;13.65;;;4.60;99.90;;;;;;5072712;28;20166;-47
2022/03/04 00:13:25;;;;;;;17.05;12.13;;;4.50;99.90;;;;;;5072377;28;20534;-48
2022/03/04 00:15:50;;;;;;;15.00;9.25;;;4.50;99.90;;;;;;5054425;28;20162;-48
2022/03/04 00:18:16;;;;;;;14.27;8.50;;;4.50;99.90;;;;;;5072262;28;20173;-48
2022/03/04 00:20:42;;;;;;;13.50;8.27;;;4.50;99.90;;;;;;5072477;28;20616;-48
2022/03/04 00:23:08;;;;;;;11.65;7.65;;;4.50;99.90;;;;;;5072436;28;20522;-48
2022/03/04 00:25:33;;;;;;;11.25;7.57;;;4.40;99.90;;;;;;5072176;28;20198;-48
2022/03/04 00:27:59;;;;;;;12.65;7.72;;;4.40;99.90;;;;;;5072000;28;20212;-48
2022/03/04 00:30:24;;;;;;;14.02;8.30;;;4.40;99.90;;;;;;5072111;28;20249;-48
2022/03/04 00:32:50;;;;;;;12.50;8.32;;;4.40;99.90;;;;;;5072248;28;20638;-48
2022/03/04 00:35:15;;;;;;;13.75;8.80;;;4.40;99.90;;;;;;5072025;28;20211;-48
2022/03/04 00:37:41;;;;;;;12.73;8.13;;;4.40;99.90;;;;;;5072037;28;20191;-48
2022/03/04 00:40:08;;;;;;;15.10;8.40;;;4.40;99.90;;;;;;5072284;28;20611;-48
2022/03/04 00:42:34;;;;;;;12.68;8.68;;;4.30;99.90;;;;;;5071996;28;20166;-48
2022/03/04 00:45:00;;;;;;;14.25;9.13;;;4.20;99.90;;;;;;5071808;28;20193;-48
2022/03/04 00:47:25;;;;;;;13.65;8.35;;;4.20;99.90;;;;;;5071910;28;20205;-48
2022/03/04 00:49:51;;;;;;;18.95;9.73;;;4.20;99.90;;;;;;5071954;28;20208;-48
2022/03/04 00:52:17;;;;;;;16.60;9.15;;;4.30;99.90;;;;;;5072110;28;20173;-48
2022/03/04 00:54:42;;;;;;;14.27;8.55;;;4.10;99.90;;;;;;5053892;28;20586;-48
2022/03/04 00:57:08;;;;;;;16.95;8.70;;;4.10;99.90;;;;;;5072131;28;20162;-49
2022/03/04 00:59:33;;;;;;;17.38;8.77;;;4.00;99.90;;;;;;5071826;28;20174;-49
2022/03/04 01:01:59;;;;;;;15.32;9.30;;;4.00;99.90;;;;;;5071717;28;20223;-49
2022/03/04 01:04:25;;;;;;;18.48;9.10;;;4.00;99.90;;;;;;5071736;28;20178;-48
2022/03/04 01:06:50;;;;;;;14.65;8.77;;;4.10;99.90;;;;;;5072038;28;20297;-48
2022/03/04 01:09:16;;;;;;;13.35;8.32;;;4.00;99.90;;;;;;5057894;28;20264;-49
2022/03/04 01:11:41;;;;;;;14.27;9.70;;;4.00;99.90;;;;;;5075859;28;20243;-49
2022/03/04 01:14:08;;;;;;;12.95;8.63;;;4.00;99.90;;;;;;5076495;28;20174;-49
2022/03/04 01:16:34;;;;;;;14.18;8.38;;;3.90;99.90;;;;;;5075742;28;20211;-48
2022/03/04 01:19:01;;;;;;;13.85;8.90;;;4.00;99.90;;;;;;5075931;28;20174;-48
2022/03/04 01:21:27;;;;;;;14.60;9.00;;;3.90;99.90;;;;;;5075583;28;20291;-49
2022/03/04 01:23:53;;;;;;;13.65;8.32;;;3.90;99.90;;;;;;5075532;28;20286;-49
2022/03/04 01:26:19;;;;;;;19.05;9.82;;;3.80;99.90;;;;;;5075513;28;20269;-48
2022/03/04 01:28:44;;;;;;;21.92;11.82;;;3.80;99.90;;;;;;5075474;28;20177;-48
2022/03/04 01:31:11;;;;;;;19.48;9.68;;;3.80;99.90;;;;;;5075780;28;20163;-48
2022/03/04 01:33:37;;;;;;;20.30;11.20;;;3.70;99.90;;;;;;5075933;28;20174;-48
2022/03/04 01:36:02;;;;;;;19.42;10.40;;;3.70;99.90;;;;;;5075354;28;20654;-48
2022/03/04 01:38:28;;;;;;;17.42;9.73;;;3.70;99.90;;;;;;5075280;28;20166;-49
2022/03/04 01:40:54;;;;;;;18.98;9.98;;;3.70;99.90;;;;;;5075301;28;20190;-49
2022/03/04 01:43:19;;;;;;;16.55;10.25;;;3.70;99.90;;;;;;5075297;28;20174;-48
2022/03/04 01:45:45;;;;;;;15.93;9.85;;;3.70;99.90;;;;;;5074946;28;20621;-48
2022/03/04 01:48:11;;;;;;;18.15;9.05;;;3.70;99.90;;;;;;5075239;28;20205;-48
2022/03/04 01:50:37;;;;;;;19.50;10.02;;;3.80;99.90;;;;;;5075490;28;20265;-49
2022/03/04 01:53:02;;;;;;;15.57;8.82;;;3.80;99.90;;;;;;5075004;28;20205;-49
2022/03/04 01:55:28;;;;;;;14.52;9.20;;;3.70;99.90;;;;;;5074951;28;20166;-48
2022/03/04 01:57:54;;;;;;;15.25;9.50;;;3.70;99.90;;;;;;5074984;28;20661;-48
2022/03/04 02:00:19;;;;;;;14.93;9.43;;;3.70;99.90;;;;;;5074806;28;20166;-48
2022/03/04 02:02:45;;;;;;;15.48;9.30;;;3.70;99.90;;;;;;5074818;28;20207;-49
2022/03/04 02:05:18;;;;;;;15.23;9.68;;;3.70;99.90;;;;;;5074991;28;20177;-48
2022/03/04 02:07:43;;;;;;;13.05;8.50;;;3.70;99.90;;;;;;5074172;28;20275;-49
2022/03/04 02:10:09;;;;;;;17.70;9.38;;;3.70;99.90;;;;;;5074935;28;20523;-48
2022/03/04 02:12:36;;;;;;;14.15;9.20;;;3.70;99.90;;;;;;5074892;28;20178;-49
2022/03/04 02:15:03;;;;;;;15.55;9.77;;;3.70;99.90;;;;;;5074614;28;20177;-49
2022/03/04 02:17:29;;;;;;;19.55;10.20;;;3.70;99.90;;;;;;5056698;28;20579;-48
2022/03/04 02:19:55;;;;;;;15.65;9.35;;;3.60;99.90;;;;;;5073290;28;20335;-49
2022/03/04 02:22:21;;;;;;;15.20;10.07;;;3.60;99.90;;;;;;5074462;28;20642;-49
2022/03/04 02:24:46;;;;;;;16.92;9.80;;;3.60;99.90;;;;;;5074726;28;20166;-49
2022/03/04 02:27:13;;;;;;;18.85;10.15;;;3.60;99.90;;;;;;5056453;28;20210;-48
2022/03/04 02:29:38;;;;;;;13.48;8.95;;;3.70;99.90;;;;;;5074685;28;20245;-49
2022/03/04 02:32:04;;;;;;;14.48;9.43;;;3.60;99.90;;;;;;5074315;28;20208;-48
2022/03/04 02:34:30;;;;;;;16.70;10.13;;;3.60;99.90;;;;;;5074509;28;20170;-49
2022/03/04 02:36:57;;;;;;;19.80;9.63;;;3.60;99.90;;;;;;5074249;28;20162;-48
2022/03/04 02:39:22;;;;;;;18.48;9.68;;;3.60;99.90;;;;;;5074231;28;20173;-48
2022/03/04 02:41:48;;;;;;;15.07;9.18;;;3.60;99.90;;;;;;5074055;28;20248;-48
2022/03/04 02:44:14;;;;;;;17.38;9.63;;;3.50;99.90;;;;;;5074098;28;20631;-48
2022/03/04 02:46:40;;;;;;;13.88;8.88;;;3.50;99.90;;;;;;5074163;28;20766;-49
2022/03/04 02:49:07;;;;;;;20.00;10.05;;;4.00;99.90;;;;;;5074306;28;20257;-48
2022/03/04 02:51:33;;;;;;;16.77;9.45;;;3.50;99.90;;;;;;5074264;28;20211;-48
2022/03/04 02:53:59;;;;;;;17.17;8.95;;;3.50;99.90;;;;;;5074231;28;20196;-49
2022/03/04 02:56:24;;;;;;;15.13;9.75;;;3.60;99.90;;;;;;5073845;28;20650;-48
2022/03/04 02:58:50;;;;;;;14.15;9.45;;;3.50;99.90;;;;;;5073815;28;20173;-48
2022/03/04 03:01:16;;;;;;;16.60;9.40;;;3.40;99.90;;;;;;5074036;28;20169;-49
2022/03/04 03:03:42;;;;;;;24.65;10.32;;;3.50;99.90;;;;;;5073980;28;20177;-48
2022/03/04 03:06:08;;;;;;;16.85;9.02;;;3.40;99.90;;;;;;5074000;28;20162;-48
2022/03/04 03:08:34;;;;;;;16.80;9.57;;;3.40;99.90;;;;;;5055772;28;20169;-48
2022/03/04 03:10:59;;;;;;;14.73;9.18;;;3.30;99.90;;;;;;5073681;28;20186;-49
2022/03/04 03:13:25;;;;;;;16.50;10.38;;;3.30;99.90;;;;;;5055620;28;20228;-48
2022/03/04 03:15:51;;;;;;;20.25;10.70;;;3.30;99.90;;;;;;5073570;28;20162;-48
2022/03/04 03:18:17;;;;;;;21.38;10.27;;;3.30;99.90;;;;;;5073324;28;20162;-49
2022/03/04 03:20:43;;;;;;;17.00;9.00;;;3.30;99.90;;;;;;5073439;28;20201;-48
2022/03/04 03:23:09;;;;;;;15.75;9.93;;;3.30;99.90;;;;;;5073670;28;20189;-48
2022/03/04 03:25:35;;;;;;;13.68;9.43;;;3.30;99.90;;;;;;5073232;28;20596;-49
2022/03/04 03:28:00;;;;;;;16.92;9.70;;;3.20;99.90;;;;;;5073101;28;20304;-49
2022/03/04 03:30:26;;;;;;;15.77;9.70;;;3.20;99.90;;;;;;5072904;28;20199;-48
2022/03/04 03:32:52;;;;;;;16.83;10.20;;;3.10;99.90;;;;;;5073422;28;20371;-49
2022/03/04 03:35:17;;;;;;;15.75;9.95;;;3.10;99.90;;;;;;5073102;28;20177;-48
2022/03/04 03:37:43;;;;;;;17.15;10.23;;;3.10;99.90;;;;;;5073010;28;20639;-48
2022/03/04 03:40:10;;;;;;;15.57;9.90;;;3.10;99.90;;;;;;5073330;28;20243;-48
2022/03/04 03:42:37;;;;;;;16.60;11.10;;;3.00;99.90;;;;;;5073387;28;20537;-49
2022/03/04 03:45:04;;;;;;;15.43;9.65;;;3.00;99.90;;;;;;5072940;28;20173;-48
2022/03/04 03:47:30;;;;;;;15.20;10.25;;;3.00;99.90;;;;;;5072666;28;20214;-49
2022/03/04 03:49:55;;;;;;;16.55;10.07;;;3.00;99.90;;;;;;5073063;28;20645;-49
2022/03/04 03:52:21;;;;;;;16.30;9.70;;;3.00;99.90;;;;;;5072798;28;20170;-49
2022/03/04 03:54:47;;;;;;;15.70;10.07;;;3.00;99.90;;;;;;5072918;28;20178;-49
2022/03/04 03:57:12;;;;;;;17.05;10.68;;;2.90;99.90;;;;;;5072579;28;20173;-48
2022/03/04 03:59:38;;;;;;;16.80;9.63;;;2.90;99.90;;;;;;5072929;28;20170;-48
2022/03/04 04:02:04;;;;;;;17.27;10.45;;;2.80;99.90;;;;;;5072515;28;20170;-48
2022/03/04 04:04:34;;;;;;;18.60;11.00;;;2.70;99.90;;;;;;5072758;28;20166;-49
2022/03/04 04:07:08;;;;;;;17.25;9.93;;;2.70;99.90;;;;;;5072672;28;20213;-48
2022/03/04 04:09:33;;;;;;;16.45;9.38;;;2.60;99.90;;;;;;5054505;28;20536;-49
2022/03/04 04:11:59;;;;;;;15.20;9.43;;;2.50;99.90;;;;;;5072323;28;20169;-48
2022/03/04 04:14:26;;;;;;;19.98;10.68;;;2.60;99.90;;;;;;5072652;28;20166;-48
2022/03/04 04:16:52;;;;;;;16.55;10.20;;;2.50;99.90;;;;;;5054481;28;20264;-48
2022/03/04 04:19:17;;;;;;;18.65;10.48;;;2.50;99.90;;;;;;5072285;28;20211;-48
2022/03/04 04:21:43;;;;;;;17.98;9.85;;;2.40;99.90;;;;;;5072277;28;20208;-48
2022/03/04 04:24:08;;;;;;;16.63;10.45;;;2.40;99.90;;;;;;5072477;28;20266;-48
2022/03/04 04:26:34;;;;;;;18.98;10.93;;;2.40;99.90;;;;;;5072047;28;20350;-48
2022/03/04 04:28:59;;;;;;;20.83;11.23;;;2.30;99.90;;;;;;5072096;28;20192;-48
2022/03/04 04:31:25;;;;;;;19.23;11.43;;;2.20;99.90;;;;;;5072083;28;20185;-48
2022/03/04 04:33:50;;;;;;;21.63;11.85;;;2.30;99.90;;;;;;5072105;28;20177;-47
2022/03/04 04:36:16;;;;;;;20.65;10.95;;;2.20;99.90;;;;;;5071972;28;20223;-48
2022/03/04 04:38:42;;;;;;;16.85;11.13;;;2.30;99.90;;;;;;5053976;28;20170;-48
2022/03/04 04:41:08;;;;;;;15.30;10.60;;;2.20;99.90;;;;;;5072114;28;20710;-48
2022/03/04 04:43:35;;;;;;;23.83;12.45;;;2.20;99.90;;;;;;5071665;28;20666;-48
2022/03/04 04:46:00;;;;;;;18.20;10.80;;;2.20;99.90;;;;;;5071913;28;20713;-48
2022/03/04 04:48:26;;;;;;;27.52;11.90;;;2.10;99.90;;;;;;5072019;28;20201;-49
2022/03/04 04:50:52;;;;;;;19.83;10.52;;;2.10;99.90;;;;;;5072178;28;20525;-49
2022/03/04 04:53:17;;;;;;;19.60;11.23;;;2.10;99.90;;;;;;5072108;28;20627;-48
2022/03/04 04:55:43;;;;;;;18.88;10.75;;;2.00;99.90;;;;;;5071749;28;20252;-48
2022/03/04 04:58:09;;;;;;;15.80;10.00;;;2.00;99.90;;;;;;5072070;28;20176;-48
2022/03/04 05:00:34;;;;;;;18.08;10.68;;;1.90;99.90;;;;;;5053733;28;20173;-48
2022/03/04 05:03:00;;;;;;;19.15;10.63;;;2.00;99.90;;;;;;5071713;28;20166;-49
2022/03/04 05:05:25;;;;;;;17.27;9.97;;;2.00;99.90;;;;;;5071955;28;20176;-48
2022/03/04 05:07:51;;;;;;;20.15;10.45;;;2.00;99.90;;;;;;5071639;28;20201;-48
2022/03/04 05:10:16;;;;;;;19.05;11.02;;;2.00;99.90;;;;;;5071810;28;20166;-48
2022/03/04 05:12:42;;;;;;;17.10;9.98;;;2.00;99.90;;;;;;5071753;28;20158;-48
2022/03/04 05:15:08;;;;;;;17.90;10.52;;;1.90;99.90;;;;;;5072054;28;20168;-48
2022/03/04 05:17:34;;;;;;;17.07;9.97;;;2.00;99.90;;;;;;5071671;28;20177;-48
2022/03/04 05:19:59;;;;;;;19.55;10.77;;;2.00;99.90;;;;;;5071593;28;20169;-49
2022/03/04 05:22:25;;;;;;;17.38;11.05;;;2.00;99.90;;;;;;5071632;28;20203;-48
2022/03/04 05:24:51;;;;;;;16.38;10.60;;;2.00;99.90;;;;;;5071699;28;20603;-49
2022/03/04 05:27:16;;;;;;;18.85;11.13;;;2.00;99.90;;;;;;5071493;28;20208;-48
2022/03/04 05:29:42;;;;;;;19.45;11.93;;;2.00;99.90;;;;;;5071614;28;20165;-48
2022/03/04 05:32:07;;;;;;;20.55;10.32;;;2.00;99.90;;;;;;5071758;28;20165;-49
2022/03/04 05:34:33;;;;;;;18.55;10.73;;;2.00;99.90;;;;;;5071449;28;20166;-48
2022/03/04 05:36:59;;;;;;;21.10;11.30;;;2.00;99.90;;;;;;5071093;28;20248;-48
2022/03/04 05:39:24;;;;;;;19.67;10.93;;;2.00;99.90;;;;;;5071597;28;20185;-48
2022/03/04 05:41:50;;;;;;;23.63;11.23;;;2.00;99.90;;;;;;5071365;28;20259;-49
2022/03/04 05:44:15;;;;;;;18.67;10.80;;;2.00;99.90;;;;;;5071295;28;20166;-48
2022/03/04 05:46:41;;;;;;;19.20;10.88;;;1.90;99.90;;;;;;5071170;28;20347;-48
2022/03/04 05:49:07;;;;;;;20.15;10.57;;;2.00;99.90;;;;;;5071847;28;20207;-49
2022/03/04 05:51:33;;;;;;;18.65;11.25;;;2.00;99.90;;;;;;5071299;28;20263;-49
2022/03/04 05:53:59;;;;;;;22.45;10.63;;;2.00;99.90;;;;;;5073577;28;20166;-49
2022/03/04 05:56:25;;;;;;;18.73;11.07;;;2.10;99.90;;;;;;5074476;28;20162;-49
2022/03/04 05:58:50;;;;;;;19.83;11.77;;;2.00;99.90;;;;;;5075232;28;20170;-49
2022/03/04 06:01:16;;;;;;;25.95;12.80;;;2.00;99.90;;;;;;5074814;28;20158;-49
2022/03/04 06:03:43;;;;;;;19.38;10.95;;;-0.40;99.90;;;;;;5074886;28;20166;-48
2022/03/04 06:06:11;;;;;;;21.95;11.68;;;2.00;99.90;;;;;;5075324;28;20166;-48
2022/03/04 06:08:37;;;;;;;32.97;18.23;;;2.00;99.90;;;;;;5075339;28;20231;-49
2022/03/04 06:11:02;;;;;;;26.17;15.07;;;2.00;99.90;;;;;;5074706;28;20510;-49
2022/03/04 06:13:28;;;;;;;23.88;14.07;;;2.10;99.90;;;;;;5074660;28;20245;-50
2022/03/04 06:15:53;;;;;;;21.60;12.43;;;2.00;99.90;;;;;;5074547;28;20268;-49
2022/03/04 06:18:19;;;;;;;34.23;18.00;;;2.10;99.90;;;;;;5073788;28;20158;-49
2022/03/04 06:20:45;;;;;;;17.45;10.43;;;2.10;99.90;;;;;;5074102;28;20174;-49
2022/03/04 06:23:11;;;;;;;35.30;16.52;;;2.00;99.90;;;;;;5074682;28;20212;-49
2022/03/04 06:25:37;;;;;;;29.95;16.13;;;2.10;99.90;;;;;;5074827;28;20181;-49
2022/03/04 06:28:03;;;;;;;30.10;15.45;;;2.10;99.90;;;;;;5074286;28;20194;-48
2022/03/04 06:30:31;;;;;;;26.60;12.68;;;2.20;99.90;;;;;;5074199;28;20245;-49
2022/03/04 06:35:42;;;;;;;23.88;12.88;;;2.10;99.90;;;;;;5074330;28;20177;-49
2022/03/04 06:38:08;;;;;;;29.35;15.07;;;2.10;99.90;;;;;;5074374;28;20619;-49
2022/03/04 06:40:33;;;;;;;27.38;12.88;;;2.20;99.90;;;;;;5073971;28;20173;-49
2022/03/04 06:42:59;;;;;;;32.85;15.73;;;2.20;99.90;;;;;;5073894;28;20170;-49
2022/03/04 06:45:25;;;;;;;28.02;15.85;;;2.30;99.90;;;;;;5073732;28;20225;-49
2022/03/04 06:47:51;;;;;;;37.90;19.92;;;2.30;99.90;;;;;;5073729;28;20258;-49
2022/03/04 06:50:17;;;;;;;31.17;17.08;;;2.30;99.90;;;;;;5073993;28;20176;-49
2022/03/04 06:52:43;;;;;;;22.98;12.02;;;2.30;99.90;;;;;;5073859;28;20582;-48
2022/03/04 06:55:09;;;;;;;18.50;11.05;;;2.30;99.90;;;;;;5074321;28;20170;-49
2022/03/04 06:57:35;;;;;;;17.08;10.85;;;2.30;99.90;;;;;;5073868;28;20173;-49
2022/03/04 07:00:01;;;;;;;17.73;11.07;;;2.40;99.90;;;;;;5073731;28;20522;-49
2022/03/04 07:02:26;;;;;;;19.02;10.85;;;2.40;99.90;;;;;;5073561;28;20591;-48
2022/03/04 07:04:52;;;;;;;38.38;18.23;;;2.50;99.90;;;;;;5073163;28;20173;-48
2022/03/04 07:07:17;;;;;;;64.82;26.75;;;2.40;99.90;;;;;;5073595;28;20319;-48
2022/03/04 07:09:43;;;;;;;72.32;30.92;;;2.40;99.90;;;;;;5073518;28;20623;-49
2022/03/04 07:12:09;;;;;;;99.25;37.10;;;2.50;99.90;;;;;;5073914;28;20244;-48
2022/03/04 07:14:36;;;;;;;122.45;43.50;;;2.50;99.90;;;;;;5073685;28;20178;-48
2022/03/04 07:17:01;;;;;;;70.18;27.23;;;2.60;99.90;;;;;;5073225;28;20527;-49
2022/03/04 07:19:27;;;;;;;34.72;16.55;;;2.70;99.90;;;;;;5055537;28;20181;-48
2022/03/04 07:21:52;;;;;;;38.20;16.52;;;2.70;99.90;;;;;;5073206;28;20169;-48
2022/03/04 07:24:18;;;;;;;47.72;20.25;;;2.80;99.90;;;;;;5055348;28;20193;-50
2022/03/04 07:26:43;;;;;;;31.33;15.15;;;2.90;99.90;;;;;;5073027;28;20208;-48
2022/03/04 07:29:09;;;;;;;31.20;16.95;;;3.10;99.90;;;;;;5055532;28;20181;-49
2022/03/04 07:31:35;;;;;;;29.13;15.93;;;3.10;99.90;;;;;;5055212;28;20215;-49
2022/03/04 07:34:00;;;;;;;20.67;12.65;;;3.20;99.90;;;;;;5073043;28;20173;-50
2022/03/04 07:36:26;;;;;;;21.42;12.85;;;3.20;99.90;;;;;;5072967;28;20173;-48
2022/03/04 07:38:55;;;;;;;23.27;13.85;;;3.30;99.90;;;;;;5072937;28;20223;-48
2022/03/04 07:41:20;;;;;;;18.08;11.57;;;3.40;99.90;;;;;;5073188;28;20535;-48
2022/03/04 07:43:46;;;;;;;20.55;11.85;;;3.40;99.90;;;;;;5073167;28;20257;-49
2022/03/04 07:46:11;;;;;;;21.85;11.48;;;3.50;99.90;;;;;;5072734;28;20247;-50
2022/03/04 07:48:37;;;;;;;31.65;18.02;;;3.50;99.90;;;;;;5073040;28;20217;-48
2022/03/04 07:51:05;;;;;;;30.98;15.38;;;3.60;99.90;;;;;;5073025;28;20172;-48
2022/03/04 07:53:30;;;;;;;28.35;14.35;;;3.70;99.90;;;;;;5071204;28;20174;-48
2022/03/04 07:55:56;;;;;;;31.63;14.30;;;3.80;99.90;;;;;;5071421;28;20174;-49
2022/03/04 07:58:22;;;;;;;20.45;12.73;;;4.00;99.90;;;;;;5071188;28;20205;-48
2022/03/04 08:00:47;;;;;;;25.35;13.38;;;4.00;99.90;;;;;;5071494;28;20177;-48
2022/03/04 08:03:13;;;;;;;19.15;12.55;;;4.10;99.90;;;;;;5071384;28;20561;-49
2022/03/04 08:05:39;;;;;;;22.95;13.45;;;4.00;99.90;;;;;;5071064;28;20162;-49
2022/03/04 08:08:05;;;;;;;23.23;15.27;;;4.10;99.90;;;;;;5071211;28;20667;-50
2022/03/04 08:10:30;;;;;;;20.90;13.18;;;4.10;99.90;;;;;;5070644;28;20169;-50
2022/03/04 08:12:56;;;;;;;23.15;14.05;;;4.20;99.90;;;;;;5071062;28;20635;-48
2022/03/04 08:15:21;;;;;;;19.40;12.43;;;4.20;99.90;;;;;;5070853;28;20162;-46
2022/03/04 08:17:47;;;;;;;22.20;12.15;;;4.30;99.90;;;;;;5070292;28;20579;-46
2022/03/04 08:20:12;;;;;;;22.33;12.27;;;4.40;99.90;;;;;;5070975;28;20173;-46
2022/03/04 08:22:38;;;;;;;22.48;11.88;;;4.50;99.90;;;;;;5068791;28;20587;-46
2022/03/04 08:25:05;;;;;;;21.05;11.93;;;4.50;99.90;;;;;;5070874;28;20248;-46
2022/03/04 08:27:31;;;;;;;20.38;13.25;;;4.70;99.90;;;;;;5070704;28;20197;-49
2022/03/04 08:29:56;;;;;;;22.38;13.50;;;4.90;99.90;;;;;;5070733;28;20169;-48
2022/03/04 08:32:23;;;;;;;24.38;13.60;;;5.00;99.90;;;;;;5053080;28;20180;-45
2022/03/04 08:34:49;;;;;;;23.67;13.10;;;5.10;99.90;;;;;;5070634;28;20174;-46
2022/03/04 08:37:14;;;;;;;22.63;13.45;;;5.20;99.90;;;;;;5070503;28;20177;-45
2022/03/04 08:39:40;;;;;;;23.25;13.18;;;5.30;99.90;;;;;;5070311;28;20181;-48
2022/03/04 08:42:07;;;;;;;22.27;12.80;;;5.20;99.90;;;;;;5070809;28;20173;-45
2022/03/04 08:44:33;;;;;;;20.40;12.27;;;5.50;99.90;;;;;;5070403;28;20508;-47
2022/03/04 08:46:58;;;;;;;22.52;13.15;;;3.20;99.90;;;;;;5070324;28;20304;-47
2022/03/04 08:49:24;;;;;;;19.73;13.38;;;5.70;99.90;;;;;;5070443;28;20192;-49
2022/03/04 08:51:50;;;;;;;20.30;11.63;;;5.70;99.90;;;;;;5070706;28;20174;-46
2022/03/04 08:54:15;;;;;;;22.60;13.32;;;5.70;99.90;;;;;;5052976;28;20546;-48
2022/03/04 08:56:41;;;;;;;31.88;13.88;;;5.90;99.90;;;;;;5070438;28;20288;-49
2022/03/04 08:59:07;;;;;;;24.10;13.27;;;5.90;99.90;;;;;;5070693;28;20729;-51
2022/03/04 09:01:33;;;;;;;24.20;14.45;;;6.10;99.90;;;;;;5070245;28;20162;-46
2022/03/04 09:03:59;;;;;;;25.25;13.30;;;6.00;99.90;;;;;;5070677;28;20170;-48
2022/03/04 09:06:24;;;;;;;18.65;12.95;;;6.10;99.90;;;;;;5070365;28;20295;-49
2022/03/04 09:08:50;;;;;;;21.67;13.45;;;6.10;99.90;;;;;;5070293;28;20554;-49
2022/03/04 09:11:15;;;;;;;23.35;14.43;;;6.20;99.90;;;;;;5070325;28;20170;-45
2022/03/04 09:13:41;;;;;;;35.92;14.40;;;6.20;99.90;;;;;;5070184;28;20535;-46
2022/03/04 09:16:06;;;;;;;26.80;13.73;;;6.30;99.90;;;;;;5070479;28;20169;-47
2022/03/04 09:18:32;;;;;;;23.05;14.38;;;6.40;99.90;;;;;;5070185;28;20166;-48
2022/03/04 09:20:58;;;;;;;24.48;13.90;;;6.40;99.90;;;;;;5069945;28;20170;-47
2022/03/04 09:23:23;;;;;;;21.92;14.43;;;6.50;99.90;;;;;;5070050;28;20175;-50
2022/03/04 09:25:49;;;;;;;22.02;14.13;;;6.70;99.90;;;;;;5070276;28;20162;-46
2022/03/04 09:28:15;;;;;;;26.00;15.75;;;6.70;99.90;;;;;;5071592;28;20213;-48
2022/03/04 09:30:41;;;;;;;28.10;15.07;;;6.80;99.90;;;;;;5074407;28;20538;-48
2022/03/04 09:33:06;;;;;;;22.77;14.32;;;6.90;99.90;;;;;;5074362;28;20174;-46
2022/03/04 09:35:32;;;;;;;26.25;15.45;;;7.00;99.90;;;;;;5055582;28;20220;-49
2022/03/04 09:37:58;;;;;;;27.88;15.75;;;7.00;99.90;;;;;;5073946;28;20283;-46
2022/03/04 09:40:23;;;;;;;31.45;17.40;;;7.10;99.90;;;;;;5073731;28;20173;-47
2022/03/04 09:42:49;;;;;;;23.67;15.60;;;7.30;99.90;;;;;;5073671;28;20257;-46
2022/03/04 09:45:15;;;;;;;32.92;19.45;;;7.30;99.90;;;;;;5073717;28;20284;-46
2022/03/04 09:47:43;;;;;;;28.70;16.77;;;7.40;99.90;;;;;;5073521;28;20662;-47
2022/03/04 09:50:09;;;;;;;23.27;15.88;;;7.30;99.90;;;;;;5074000;28;20249;-49
2022/03/04 09:52:35;;;;;;;25.98;17.02;;;7.40;99.90;;;;;;5074171;28;20182;-47
2022/03/04 09:55:02;;;;;;;31.85;20.08;;;7.20;99.90;;;;;;5073448;28;20698;-49
2022/03/04 09:57:27;;;;;;;82.70;44.05;;;7.20;99.90;;;;;;5055926;28;20177;-49
2022/03/04 09:59:53;;;;;;;39.08;24.60;;;7.40;99.90;;;;;;5073790;28;20525;-49
2022/03/04 10:02:20;;;;;;;73.00;38.15;;;7.60;99.90;;;;;;5073293;28;20504;-45
2022/03/04 10:04:45;;;;;;;30.35;19.73;;;7.60;99.90;;;;;;5073691;28;20170;-46
2022/03/04 10:07:16;;;;;;;28.42;20.55;;;7.70;99.90;;;;;;5073532;28;20210;-45
2022/03/04 10:09:47;;;;;;;32.50;20.67;;;7.70;99.90;;;;;;5073313;28;20166;-48
2022/03/04 10:12:16;;;;;;;34.35;22.92;;;7.70;99.90;;;;;;5072999;28;20173;-48
2022/03/04 10:15:01;;;;;;;29.60;20.00;;;7.90;99.90;;;;;;5073251;28;20162;-47
2022/03/04 10:17:27;;;;;;;31.17;20.65;;;7.70;99.90;;;;;;5073302;28;20183;-46
2022/03/04 10:19:54;;;;;;;31.00;20.05;;;7.80;99.90;;;;;;5074110;28;20163;-46
2022/03/04 10:22:21;;;;;;;30.48;20.20;;;7.90;99.90;;;;;;5074430;28;20172;-46
2022/03/04 10:24:47;;;;;;;36.00;22.77;;;8.00;99.90;;;;;;5074359;28;20169;-46
2022/03/04 10:27:15;;;;;;;59.63;32.67;;;8.20;99.90;;;;;;5074518;28;20209;-46
2022/03/04 10:29:45;;;;;;;30.13;20.38;;;8.10;99.90;;;;;;5074197;28;20627;-46
2022/03/04 10:32:18;;;;;;;32.63;20.30;;;8.20;99.90;;;;;;5074281;28;20247;-46
2022/03/04 10:34:48;;;;;;;29.77;20.50;;;8.30;99.90;;;;;;5074340;28;20515;-46
2022/03/04 10:37:15;;;;;;;30.00;21.38;;;8.40;99.90;;;;;;5074192;28;20595;-46
2022/03/04 10:39:59;;;;;;;38.72;26.15;;;8.30;99.90;;;;;;5073100;28;20253;-46
2022/03/04 10:42:51;;;;;;;37.25;24.83;;;8.30;99.90;;;;;;5074125;28;20173;-46
2022/03/04 10:45:24;;;;;;;31.35;21.77;;;8.60;99.90;;;;;;5074111;28;20301;-46
2022/03/04 10:48:13;;;;;;;32.25;22.63;;;8.70;99.90;;;;;;5073803;28;20213;-46
2022/03/04 10:50:42;;;;;;;34.90;21.75;;;8.70;99.90;;;;;;5074358;28;20197;-46
2022/03/04 10:53:16;;;;;;;31.15;21.83;;;9.00;99.90;;;;;;5074408;28;20277;-46
2022/03/04 10:55:42;;;;;;;34.05;24.55;;;8.90;99.90;;;;;;5074077;28;20224;-46
2022/03/04 10:58:29;;;;;;;44.63;31.13;;;8.90;99.90;;;;;;5073948;28;20708;-46
2022/03/04 11:01:02;;;;;;;33.33;22.77;;;9.00;99.90;;;;;;5055723;28;20185;-46
2022/03/04 11:03:31;;;;;;;34.63;22.45;;;9.00;99.90;;;;;;5073693;28;20186;-46
2022/03/04 11:06:02;;;;;;;29.55;21.85;;;9.10;99.90;;;;;;5073584;28;20169;-46
2022/03/04 11:08:28;;;;;;;35.63;22.33;;;9.30;99.90;;;;;;5073540;28;20205;-46
2022/03/04 11:10:55;;;;;;;41.90;30.48;;;9.30;99.90;;;;;;5073480;28;20211;-46
2022/03/04 11:13:23;;;;;;;32.63;22.60;;;9.20;99.90;;;;;;5073371;28;20170;-46
2022/03/04 11:15:51;;;;;;;37.13;23.40;;;9.30;99.90;;;;;;5073635;28;20194;-46
2022/03/04 11:18:18;;;;;;;35.20;22.63;;;9.40;99.90;;;;;;5073400;28;20190;-46
2022/03/04 11:20:47;;;;;;;35.90;22.52;;;9.40;99.90;;;;;;5073305;28;20158;-46
2022/03/04 11:23:21;;;;;;;34.05;22.02;;;9.40;99.90;;;;;;5073525;28;20193;-46
2022/03/04 11:25:56;;;;;;;27.48;20.10;;;9.60;99.90;;;;;;5073283;28;20170;-46
2022/03/04 11:28:27;;;;;;;29.85;20.02;;;9.70;99.90;;;;;;5073295;28;20336;-46
2022/03/04 11:31:00;;;;;;;33.75;20.98;;;9.80;99.90;;;;;;5073418;28;20170;-46
2022/03/04 11:33:31;;;;;;;36.25;25.98;;;9.80;99.90;;;;;;5073112;28;20182;-46
2022/03/04 11:36:14;;;;;;;32.00;23.77;;;9.80;98.50;;;;;;5073279;28;20201;-46
2022/03/04 11:38:49;;;;;;;33.10;22.45;;;9.80;97.80;;;;;;5073515;28;20194;-46
2022/03/04 11:41:19;;;;;;;29.13;21.02;;;9.90;98.50;;;;;;5072815;28;20572;-46
2022/03/04 11:43:46;;;;;;;35.47;27.08;;;10.00;97.10;;;;;;5072882;28;20166;-46
2022/03/04 11:46:27;;;;;;;32.22;23.40;;;10.20;97.70;;;;;;5072630;28;20240;-46
2022/03/04 11:49:25;;;;;;;35.35;24.90;;;10.40;98.40;;;;;;5073077;28;20190;-46
2022/03/04 11:52:11;;;;;;;24.23;17.50;;;10.40;98.60;;;;;;5072568;28;20174;-46
2022/03/04 11:54:49;;;;;;;35.17;22.55;;;10.20;95.50;;;;;;5073133;28;20166;-46
2022/03/04 11:57:19;;;;;;;30.23;18.70;;;10.40;96.80;;;;;;5072806;28;20258;-47
2022/03/04 12:00:20;;;;;;;28.70;19.17;;;10.70;97.80;;;;;;5072892;28;20170;-46
2022/03/04 12:02:48;;;;;;;27.25;18.50;;;10.50;94.60;;;;;;5072364;28;20647;-47
2022/03/04 12:05:21;;;;;;;30.33;21.25;;;10.70;94.70;;;;;;5072610;28;20178;-47
2022/03/04 12:07:53;;;;;;;26.58;19.10;;;10.70;93.60;;;;;;5072405;28;20286;-47
2022/03/04 12:10:39;;;;;;;31.20;22.00;;;10.60;94.00;;;;;;5072413;28;20162;-46
2022/03/04 12:13:14;;;;;;;25.95;17.55;;;10.60;94.20;;;;;;5072339;28;20180;-46
2022/03/04 12:15:50;;;;;;;30.13;21.20;;;10.50;93.00;;;;;;5072676;28;20162;-46
2022/03/04 12:18:25;;;;;;;26.52;18.20;;;10.80;93.60;;;;;;5072324;28;20249;-46
2022/03/04 12:20:56;;;;;;;26.70;17.10;;;10.80;93.20;;;;;;5054684;28;20665;-46
2022/03/04 12:23:41;;;;;;;27.25;19.45;;;10.70;92.60;;;;;;5054235;28;20174;-47
2022/03/04 12:26:09;;;;;;;27.27;18.98;;;10.70;92.80;;;;;;5072337;28;20650;-46
2022/03/04 12:28:46;;;;;;;28.33;18.45;;;10.90;91.60;;;;;;5072620;28;20209;-46
2022/03/04 12:31:12;;;;;;;32.78;18.38;;;11.00;91.50;;;;;;5072045;28;20631;-46
2022/03/04 12:33:44;;;;;;;27.65;17.77;;;11.10;91.70;;;;;;5072402;28;20181;-46
2022/03/04 12:36:12;;;;;;;24.08;17.38;;;11.10;91.50;;;;;;5072325;28;20189;-47
2022/03/04 12:38:44;;;;;;;24.27;17.17;;;11.10;91.20;;;;;;5072190;28;20170;-46
2022/03/04 12:41:15;;;;;;;25.40;16.75;;;11.00;91.00;;;;;;5072161;28;20180;-46